sensor_id;sensor_type;location;lat;lon;timestamp;P1;durP1;ratioP1;P2;durP2;ratioP2
6113;SDS011;3087;48.392;10.836;2022-07-29T00:01:45;3.67;;;2.88;;
6113;SDS011;3087;48.392;10.836;2022-07-29T00:04:11;4.45;;;3.00;;
6113;SDS011;3087;48.392;10.836;2022-07-29T00:06:37;4.20;;;2.90;;
6113;SDS011;3087;48.392;10.836;2022-07-29T00:09:02;5.53;;;2.60;;
6113;SDS011;3087;48.392;10.836;2022-07-29T00:11:28;3.10;;;2.58;;
6113;SDS011;3087;48.392;10.836;2022-07-29T00:13:53;3.10;;;2.42;;
6113;SDS011;3087;48.392;10.836;2022-07-29T00:16:19;4.53;;;2.95;;
6113;SDS011;3087;48.392;10.836;2022-07-29T00:18:45;3.58;;;3.28;;
6113;SDS011;3087;48.392;10.836;2022-07-29T00:21:10;4.28;;;2.80;;
6113;SDS011;3087;48.392;10.836;2022-07-29T00:23:36;3.75;;;3.00;;
6113;SDS011;3087;48.392;10.836;2022-07-29T00:26:02;4.90;;;3.08;;
6113;SDS011;3087;48.392;10.836;2022-07-29T00:28:27;4.47;;;2.97;;
6113;SDS011;3087;48.392;10.836;2022-07-29T00:30:53;3.40;;;3.10;;
6113;SDS011;3087;48.392;10.836;2022-07-29T00:33:19;3.22;;;2.92;;
6113;SDS011;3087;48.392;10.836;2022-07-29T00:35:45;4.13;;;2.83;;
6113;SDS011;3087;48.392;10.836;2022-07-29T00:38:16;3.63;;;3.03;;
6113;SDS011;3087;48.392;10.836;2022-07-29T00:40:44;5.70;;;3.75;;
6113;SDS011;3087;48.392;10.836;2022-07-29T00:43:11;3.55;;;2.97;;
6113;SDS011;3087;48.392;10.836;2022-07-29T00:45:38;3.80;;;3.13;;
6113;SDS011;3087;48.392;10.836;2022-07-29T00:48:05;6.03;;;3.65;;
6113;SDS011;3087;48.392;10.836;2022-07-29T00:50:32;3.63;;;3.22;;
6113;SDS011;3087;48.392;10.836;2022-07-29T00:52:58;4.35;;;3.30;;
6113;SDS011;3087;48.392;10.836;2022-07-29T00:55:24;4.85;;;3.30;;
6113;SDS011;3087;48.392;10.836;2022-07-29T00:57:50;4.95;;;3.50;;
6113;SDS011;3087;48.392;10.836;2022-07-29T01:00:21;3.58;;;3.22;;
6113;SDS011;3087;48.392;10.836;2022-07-29T01:02:48;4.70;;;3.55;;
6113;SDS011;3087;48.392;10.836;2022-07-29T01:05:14;4.63;;;3.20;;
6113;SDS011;3087;48.392;10.836;2022-07-29T01:07:45;4.10;;;3.00;;
6113;SDS011;3087;48.392;10.836;2022-07-29T01:10:13;3.80;;;3.25;;
6113;SDS011;3087;48.392;10.836;2022-07-29T01:12:40;4.72;;;3.63;;
6113;SDS011;3087;48.392;10.836;2022-07-29T01:15:08;4.25;;;3.10;;
6113;SDS011;3087;48.392;10.836;2022-07-29T01:20:18;4.60;;;3.42;;
6113;SDS011;3087;48.392;10.836;2022-07-29T01:30:56;4.53;;;3.90;;
6113;SDS011;3087;48.392;10.836;2022-07-29T01:33:23;3.50;;;3.20;;
6113;SDS011;3087;48.392;10.836;2022-07-29T01:36:14;4.45;;;3.38;;
6113;SDS011;3087;48.392;10.836;2022-07-29T01:39:06;4.22;;;3.60;;
6113;SDS011;3087;48.392;10.836;2022-07-29T01:41:40;4.38;;;3.33;;
6113;SDS011;3087;48.392;10.836;2022-07-29T01:44:32;4.00;;;3.10;;
6113;SDS011;3087;48.392;10.836;2022-07-29T01:47:02;4.22;;;3.30;;
6113;SDS011;3087;48.392;10.836;2022-07-29T01:49:35;5.85;;;3.38;;
6113;SDS011;3087;48.392;10.836;2022-07-29T01:52:10;3.85;;;3.47;;
6113;SDS011;3087;48.392;10.836;2022-07-29T01:54:45;4.85;;;3.90;;
6113;SDS011;3087;48.392;10.836;2022-07-29T01:57:16;4.88;;;3.75;;
6113;SDS011;3087;48.392;10.836;2022-07-29T01:59:46;4.90;;;4.13;;
6113;SDS011;3087;48.392;10.836;2022-07-29T02:02:16;4.00;;;3.58;;
6113;SDS011;3087;48.392;10.836;2022-07-29T02:04:44;4.60;;;4.13;;
6113;SDS011;3087;48.392;10.836;2022-07-29T02:07:13;5.90;;;4.53;;
6113;SDS011;3087;48.392;10.836;2022-07-29T02:09:43;4.30;;;3.90;;
6113;SDS011;3087;48.392;10.836;2022-07-29T02:12:10;4.40;;;3.67;;
6113;SDS011;3087;48.392;10.836;2022-07-29T02:14:39;5.45;;;4.15;;
6113;SDS011;3087;48.392;10.836;2022-07-29T02:17:09;4.72;;;4.25;;
6113;SDS011;3087;48.392;10.836;2022-07-29T02:19:37;4.90;;;3.78;;
6113;SDS011;3087;48.392;10.836;2022-07-29T02:22:04;4.40;;;4.00;;
6113;SDS011;3087;48.392;10.836;2022-07-29T02:24:31;5.75;;;4.28;;
6113;SDS011;3087;48.392;10.836;2022-07-29T02:27:00;5.13;;;4.63;;
6113;SDS011;3087;48.392;10.836;2022-07-29T02:29:27;5.88;;;3.88;;
6113;SDS011;3087;48.392;10.836;2022-07-29T02:31:55;7.85;;;6.72;;
6113;SDS011;3087;48.392;10.836;2022-07-29T02:34:23;4.53;;;4.13;;
6113;SDS011;3087;48.392;10.836;2022-07-29T02:36:50;4.28;;;3.88;;
6113;SDS011;3087;48.392;10.836;2022-07-29T02:39:17;4.40;;;3.90;;
6113;SDS011;3087;48.392;10.836;2022-07-29T02:41:45;7.30;;;6.05;;
6113;SDS011;3087;48.392;10.836;2022-07-29T02:44:17;6.03;;;5.00;;
6113;SDS011;3087;48.392;10.836;2022-07-29T02:57:42;6.28;;;4.57;;
6113;SDS011;3087;48.392;10.836;2022-07-29T03:00:29;7.43;;;4.68;;
6113;SDS011;3087;48.392;10.836;2022-07-29T03:02:57;5.20;;;4.20;;
6113;SDS011;3087;48.392;10.836;2022-07-29T03:05:25;5.82;;;5.22;;
6113;SDS011;3087;48.392;10.836;2022-07-29T03:07:54;4.75;;;4.30;;
6113;SDS011;3087;48.392;10.836;2022-07-29T03:10:22;6.57;;;3.67;;
6113;SDS011;3087;48.392;10.836;2022-07-29T03:12:50;5.03;;;4.15;;
6113;SDS011;3087;48.392;10.836;2022-07-29T03:15:16;5.63;;;5.03;;
6113;SDS011;3087;48.392;10.836;2022-07-29T03:17:43;5.32;;;4.82;;
6113;SDS011;3087;48.392;10.836;2022-07-29T03:20:09;6.65;;;5.38;;
6113;SDS011;3087;48.392;10.836;2022-07-29T03:22:43;6.63;;;5.50;;
6113;SDS011;3087;48.392;10.836;2022-07-29T03:25:12;6.18;;;5.38;;
6113;SDS011;3087;48.392;10.836;2022-07-29T03:27:40;7.18;;;5.53;;
6113;SDS011;3087;48.392;10.836;2022-07-29T03:30:06;5.32;;;4.65;;
6113;SDS011;3087;48.392;10.836;2022-07-29T03:32:34;6.78;;;5.53;;
6113;SDS011;3087;48.392;10.836;2022-07-29T03:35:00;7.55;;;5.20;;
6113;SDS011;3087;48.392;10.836;2022-07-29T03:37:26;6.93;;;5.75;;
6113;SDS011;3087;48.392;10.836;2022-07-29T03:39:52;6.82;;;5.28;;
6113;SDS011;3087;48.392;10.836;2022-07-29T03:42:20;5.82;;;5.22;;
6113;SDS011;3087;48.392;10.836;2022-07-29T03:44:48;8.00;;;4.05;;
6113;SDS011;3087;48.392;10.836;2022-07-29T03:47:16;6.85;;;5.28;;
6113;SDS011;3087;48.392;10.836;2022-07-29T03:49:47;6.25;;;4.97;;
6113;SDS011;3087;48.392;10.836;2022-07-29T03:52:15;9.25;;;5.35;;
6113;SDS011;3087;48.392;10.836;2022-07-29T03:54:41;7.57;;;6.20;;
6113;SDS011;3087;48.392;10.836;2022-07-29T03:57:07;8.35;;;6.15;;
6113;SDS011;3087;48.392;10.836;2022-07-29T03:59:35;17.23;;;11.85;;
6113;SDS011;3087;48.392;10.836;2022-07-29T04:02:05;7.43;;;6.40;;
6113;SDS011;3087;48.392;10.836;2022-07-29T04:04:35;7.82;;;6.00;;
6113;SDS011;3087;48.392;10.836;2022-07-29T04:07:01;5.45;;;4.90;;
6113;SDS011;3087;48.392;10.836;2022-07-29T04:09:27;7.20;;;4.85;;
6113;SDS011;3087;48.392;10.836;2022-07-29T04:11:53;4.65;;;4.05;;
6113;SDS011;3087;48.392;10.836;2022-07-29T04:14:18;7.07;;;4.53;;
6113;SDS011;3087;48.392;10.836;2022-07-29T04:16:45;6.05;;;3.95;;
6113;SDS011;3087;48.392;10.836;2022-07-29T04:19:11;5.07;;;4.15;;
6113;SDS011;3087;48.392;10.836;2022-07-29T04:21:40;6.53;;;5.60;;
6113;SDS011;3087;48.392;10.836;2022-07-29T04:24:06;4.85;;;4.32;;
6113;SDS011;3087;48.392;10.836;2022-07-29T04:26:33;4.80;;;4.32;;
6113;SDS011;3087;48.392;10.836;2022-07-29T04:28:59;7.95;;;4.22;;
6113;SDS011;3087;48.392;10.836;2022-07-29T04:31:24;6.55;;;3.75;;
6113;SDS011;3087;48.392;10.836;2022-07-29T04:33:50;5.22;;;4.22;;
6113;SDS011;3087;48.392;10.836;2022-07-29T04:36:16;6.38;;;5.00;;
6113;SDS011;3087;48.392;10.836;2022-07-29T04:38:41;7.03;;;4.80;;
6113;SDS011;3087;48.392;10.836;2022-07-29T04:41:07;7.00;;;4.95;;
6113;SDS011;3087;48.392;10.836;2022-07-29T04:43:34;5.80;;;4.40;;
6113;SDS011;3087;48.392;10.836;2022-07-29T04:46:00;7.35;;;5.40;;
6113;SDS011;3087;48.392;10.836;2022-07-29T04:48:26;8.35;;;5.20;;
6113;SDS011;3087;48.392;10.836;2022-07-29T04:50:52;8.73;;;4.00;;
6113;SDS011;3087;48.392;10.836;2022-07-29T04:53:17;6.57;;;4.50;;
6113;SDS011;3087;48.392;10.836;2022-07-29T04:55:43;7.53;;;4.63;;
6113;SDS011;3087;48.392;10.836;2022-07-29T04:58:10;7.97;;;4.38;;
6113;SDS011;3087;48.392;10.836;2022-07-29T05:00:36;5.18;;;4.53;;
6113;SDS011;3087;48.392;10.836;2022-07-29T05:03:03;6.05;;;4.85;;
6113;SDS011;3087;48.392;10.836;2022-07-29T05:05:29;8.52;;;4.55;;
6113;SDS011;3087;48.392;10.836;2022-07-29T05:07:55;5.70;;;4.60;;
6113;SDS011;3087;48.392;10.836;2022-07-29T05:10:22;7.75;;;4.85;;
6113;SDS011;3087;48.392;10.836;2022-07-29T05:12:49;7.55;;;4.40;;
6113;SDS011;3087;48.392;10.836;2022-07-29T05:15:14;4.85;;;4.25;;
6113;SDS011;3087;48.392;10.836;2022-07-29T05:17:40;11.18;;;4.50;;
6113;SDS011;3087;48.392;10.836;2022-07-29T05:20:06;6.82;;;4.75;;
6113;SDS011;3087;48.392;10.836;2022-07-29T05:22:32;6.25;;;5.03;;
6113;SDS011;3087;48.392;10.836;2022-07-29T05:24:57;5.88;;;4.07;;
6113;SDS011;3087;48.392;10.836;2022-07-29T05:27:23;9.15;;;6.15;;
6113;SDS011;3087;48.392;10.836;2022-07-29T05:29:50;6.53;;;4.65;;
6113;SDS011;3087;48.392;10.836;2022-07-29T05:32:16;7.18;;;5.30;;
6113;SDS011;3087;48.392;10.836;2022-07-29T05:34:42;7.28;;;6.07;;
6113;SDS011;3087;48.392;10.836;2022-07-29T05:37:08;7.93;;;6.18;;
6113;SDS011;3087;48.392;10.836;2022-07-29T05:39:34;7.75;;;5.25;;
6113;SDS011;3087;48.392;10.836;2022-07-29T05:42:00;7.43;;;5.55;;
6113;SDS011;3087;48.392;10.836;2022-07-29T05:44:25;6.18;;;4.82;;
6113;SDS011;3087;48.392;10.836;2022-07-29T05:46:51;5.85;;;5.25;;
6113;SDS011;3087;48.392;10.836;2022-07-29T05:49:17;10.02;;;5.65;;
6113;SDS011;3087;48.392;10.836;2022-07-29T05:51:43;12.68;;;6.97;;
6113;SDS011;3087;48.392;10.836;2022-07-29T05:54:10;7.85;;;7.05;;
6113;SDS011;3087;48.392;10.836;2022-07-29T05:56:37;8.20;;;5.28;;
6113;SDS011;3087;48.392;10.836;2022-07-29T05:59:02;10.48;;;5.50;;
6113;SDS011;3087;48.392;10.836;2022-07-29T06:01:28;7.10;;;5.28;;
6113;SDS011;3087;48.392;10.836;2022-07-29T06:03:54;6.88;;;5.50;;
6113;SDS011;3087;48.392;10.836;2022-07-29T06:06:19;6.47;;;5.35;;
6113;SDS011;3087;48.392;10.836;2022-07-29T06:08:45;6.45;;;5.85;;
6113;SDS011;3087;48.392;10.836;2022-07-29T06:11:10;9.00;;;5.15;;
6113;SDS011;3087;48.392;10.836;2022-07-29T06:13:36;6.03;;;5.40;;
6113;SDS011;3087;48.392;10.836;2022-07-29T06:16:02;6.47;;;5.15;;
6113;SDS011;3087;48.392;10.836;2022-07-29T06:18:29;7.65;;;5.20;;
6113;SDS011;3087;48.392;10.836;2022-07-29T06:20:54;8.70;;;5.88;;
6113;SDS011;3087;48.392;10.836;2022-07-29T06:23:20;7.88;;;6.00;;
6113;SDS011;3087;48.392;10.836;2022-07-29T06:25:46;6.50;;;5.55;;
6113;SDS011;3087;48.392;10.836;2022-07-29T06:28:14;10.70;;;5.85;;
6113;SDS011;3087;48.392;10.836;2022-07-29T06:30:40;8.10;;;6.18;;
6113;SDS011;3087;48.392;10.836;2022-07-29T06:33:05;7.32;;;5.60;;
6113;SDS011;3087;48.392;10.836;2022-07-29T06:35:34;5.55;;;4.95;;
6113;SDS011;3087;48.392;10.836;2022-07-29T06:38:01;6.47;;;4.95;;
6113;SDS011;3087;48.392;10.836;2022-07-29T06:40:28;8.32;;;5.47;;
6113;SDS011;3087;48.392;10.836;2022-07-29T06:43:12;6.18;;;5.57;;
6113;SDS011;3087;48.392;10.836;2022-07-29T06:45:38;10.10;;;5.53;;
6113;SDS011;3087;48.392;10.836;2022-07-29T06:48:06;7.60;;;5.30;;
6113;SDS011;3087;48.392;10.836;2022-07-29T06:50:31;6.90;;;5.40;;
6113;SDS011;3087;48.392;10.836;2022-07-29T06:52:57;6.93;;;5.28;;
6113;SDS011;3087;48.392;10.836;2022-07-29T06:55:22;7.65;;;6.93;;
6113;SDS011;3087;48.392;10.836;2022-07-29T06:57:49;8.35;;;6.97;;
6113;SDS011;3087;48.392;10.836;2022-07-29T07:00:15;9.68;;;7.95;;
6113;SDS011;3087;48.392;10.836;2022-07-29T07:02:40;6.60;;;5.60;;
6113;SDS011;3087;48.392;10.836;2022-07-29T07:05:06;7.25;;;6.53;;
6113;SDS011;3087;48.392;10.836;2022-07-29T07:07:32;7.70;;;6.53;;
6113;SDS011;3087;48.392;10.836;2022-07-29T07:09:59;8.32;;;6.75;;
6113;SDS011;3087;48.392;10.836;2022-07-29T07:12:24;7.18;;;5.80;;
6113;SDS011;3087;48.392;10.836;2022-07-29T07:14:50;8.30;;;5.85;;
6113;SDS011;3087;48.392;10.836;2022-07-29T07:17:16;6.85;;;5.55;;
6113;SDS011;3087;48.392;10.836;2022-07-29T07:19:41;4.95;;;3.95;;
6113;SDS011;3087;48.392;10.836;2022-07-29T07:22:07;4.00;;;3.65;;
6113;SDS011;3087;48.392;10.836;2022-07-29T07:24:32;4.57;;;4.00;;
6113;SDS011;3087;48.392;10.836;2022-07-29T07:26:58;4.38;;;3.90;;
6113;SDS011;3087;48.392;10.836;2022-07-29T07:29:24;5.13;;;4.63;;
6113;SDS011;3087;48.392;10.836;2022-07-29T07:31:49;4.88;;;3.90;;
6113;SDS011;3087;48.392;10.836;2022-07-29T07:34:15;6.30;;;4.80;;
6113;SDS011;3087;48.392;10.836;2022-07-29T07:36:41;5.13;;;3.92;;
6113;SDS011;3087;48.392;10.836;2022-07-29T07:39:06;5.60;;;3.97;;
6113;SDS011;3087;48.392;10.836;2022-07-29T07:41:32;6.38;;;4.72;;
6113;SDS011;3087;48.392;10.836;2022-07-29T07:43:58;5.28;;;4.07;;
6113;SDS011;3087;48.392;10.836;2022-07-29T07:46:24;4.72;;;4.28;;
6113;SDS011;3087;48.392;10.836;2022-07-29T07:48:49;6.60;;;3.95;;
6113;SDS011;3087;48.392;10.836;2022-07-29T07:51:17;4.50;;;3.67;;
6113;SDS011;3087;48.392;10.836;2022-07-29T07:53:43;5.90;;;3.92;;
6113;SDS011;3087;48.392;10.836;2022-07-29T07:56:09;4.28;;;3.45;;
6113;SDS011;3087;48.392;10.836;2022-07-29T07:58:35;6.10;;;5.25;;
6113;SDS011;3087;48.392;10.836;2022-07-29T08:01:01;5.70;;;4.05;;
6113;SDS011;3087;48.392;10.836;2022-07-29T08:03:26;4.30;;;3.13;;
6113;SDS011;3087;48.392;10.836;2022-07-29T08:05:52;4.45;;;3.97;;
6113;SDS011;3087;48.392;10.836;2022-07-29T08:08:19;4.88;;;3.45;;
6113;SDS011;3087;48.392;10.836;2022-07-29T08:10:45;4.80;;;4.30;;
6113;SDS011;3087;48.392;10.836;2022-07-29T08:13:24;4.53;;;4.07;;
6113;SDS011;3087;48.392;10.836;2022-07-29T08:15:53;8.30;;;4.70;;
6113;SDS011;3087;48.392;10.836;2022-07-29T08:18:23;4.85;;;3.85;;
6113;SDS011;3087;48.392;10.836;2022-07-29T08:20:49;4.00;;;3.60;;
6113;SDS011;3087;48.392;10.836;2022-07-29T08:23:15;7.28;;;4.18;;
6113;SDS011;3087;48.392;10.836;2022-07-29T08:25:41;6.00;;;4.85;;
6113;SDS011;3087;48.392;10.836;2022-07-29T08:28:07;6.07;;;4.65;;
6113;SDS011;3087;48.392;10.836;2022-07-29T08:30:33;4.47;;;3.72;;
6113;SDS011;3087;48.392;10.836;2022-07-29T08:32:59;5.28;;;4.20;;
6113;SDS011;3087;48.392;10.836;2022-07-29T08:35:25;5.13;;;4.45;;
6113;SDS011;3087;48.392;10.836;2022-07-29T08:37:51;5.05;;;4.22;;
6113;SDS011;3087;48.392;10.836;2022-07-29T08:40:19;7.88;;;4.95;;
6113;SDS011;3087;48.392;10.836;2022-07-29T08:42:45;5.97;;;4.80;;
6113;SDS011;3087;48.392;10.836;2022-07-29T08:45:11;5.95;;;4.57;;
6113;SDS011;3087;48.392;10.836;2022-07-29T08:47:38;4.40;;;4.00;;
6113;SDS011;3087;48.392;10.836;2022-07-29T08:50:07;4.47;;;4.07;;
6113;SDS011;3087;48.392;10.836;2022-07-29T08:52:39;5.70;;;4.20;;
6113;SDS011;3087;48.392;10.836;2022-07-29T08:55:06;5.50;;;4.70;;
6113;SDS011;3087;48.392;10.836;2022-07-29T08:57:33;5.43;;;4.38;;
6113;SDS011;3087;48.392;10.836;2022-07-29T09:00:00;6.60;;;4.38;;
6113;SDS011;3087;48.392;10.836;2022-07-29T09:02:29;5.20;;;4.10;;
6113;SDS011;3087;48.392;10.836;2022-07-29T09:05:01;4.88;;;4.38;;
6113;SDS011;3087;48.392;10.836;2022-07-29T09:07:29;8.18;;;4.50;;
6113;SDS011;3087;48.392;10.836;2022-07-29T09:09:55;5.45;;;4.35;;
6113;SDS011;3087;48.392;10.836;2022-07-29T09:12:21;4.43;;;4.00;;
6113;SDS011;3087;48.392;10.836;2022-07-29T09:14:49;6.13;;;4.15;;
6113;SDS011;3087;48.392;10.836;2022-07-29T09:17:15;7.05;;;3.70;;
6113;SDS011;3087;48.392;10.836;2022-07-29T09:19:42;5.55;;;4.80;;
6113;SDS011;3087;48.392;10.836;2022-07-29T09:22:08;4.78;;;3.97;;
6113;SDS011;3087;48.392;10.836;2022-07-29T09:24:44;5.30;;;4.68;;
6113;SDS011;3087;48.392;10.836;2022-07-29T09:27:19;7.68;;;4.55;;
6113;SDS011;3087;48.392;10.836;2022-07-29T09:29:58;6.80;;;4.97;;
6113;SDS011;3087;48.392;10.836;2022-07-29T09:32:31;6.22;;;5.05;;
6113;SDS011;3087;48.392;10.836;2022-07-29T09:35:13;4.90;;;4.40;;
6113;SDS011;3087;48.392;10.836;2022-07-29T09:37:46;5.25;;;4.75;;
6113;SDS011;3087;48.392;10.836;2022-07-29T09:42:40;5.10;;;4.63;;
6113;SDS011;3087;48.392;10.836;2022-07-29T09:45:07;6.15;;;4.38;;
6113;SDS011;3087;48.392;10.836;2022-07-29T09:47:40;4.55;;;4.03;;
6113;SDS011;3087;48.392;10.836;2022-07-29T09:50:10;5.88;;;4.22;;
6113;SDS011;3087;48.392;10.836;2022-07-29T09:52:44;6.65;;;4.55;;
6113;SDS011;3087;48.392;10.836;2022-07-29T09:55:13;5.45;;;4.75;;
6113;SDS011;3087;48.392;10.836;2022-07-29T09:57:39;4.80;;;4.35;;
6113;SDS011;3087;48.392;10.836;2022-07-29T10:00:10;5.18;;;4.05;;
6113;SDS011;3087;48.392;10.836;2022-07-29T10:02:36;5.75;;;4.43;;
6113;SDS011;3087;48.392;10.836;2022-07-29T10:05:04;5.30;;;4.75;;
6113;SDS011;3087;48.392;10.836;2022-07-29T10:07:48;6.55;;;4.70;;
6113;SDS011;3087;48.392;10.836;2022-07-29T10:10:25;6.32;;;4.38;;
6113;SDS011;3087;48.392;10.836;2022-07-29T10:12:56;6.78;;;4.88;;
6113;SDS011;3087;48.392;10.836;2022-07-29T10:15:40;5.78;;;4.95;;
6113;SDS011;3087;48.392;10.836;2022-07-29T10:18:09;11.68;;;5.97;;
6113;SDS011;3087;48.392;10.836;2022-07-29T10:20:37;6.40;;;4.30;;
6113;SDS011;3087;48.392;10.836;2022-07-29T10:23:05;5.07;;;4.15;;
6113;SDS011;3087;48.392;10.836;2022-07-29T10:25:31;4.78;;;4.20;;
6113;SDS011;3087;48.392;10.836;2022-07-29T10:27:57;5.15;;;4.38;;
6113;SDS011;3087;48.392;10.836;2022-07-29T10:30:24;4.45;;;4.05;;
6113;SDS011;3087;48.392;10.836;2022-07-29T10:36:11;5.20;;;4.38;;
6113;SDS011;3087;48.392;10.836;2022-07-29T10:44:21;5.70;;;4.38;;
6113;SDS011;3087;48.392;10.836;2022-07-29T10:46:53;4.82;;;4.38;;
6113;SDS011;3087;48.392;10.836;2022-07-29T10:49:27;6.68;;;5.47;;
6113;SDS011;3087;48.392;10.836;2022-07-29T10:54:49;5.63;;;3.88;;
6113;SDS011;3087;48.392;10.836;2022-07-29T11:05:05;5.57;;;4.65;;
6113;SDS011;3087;48.392;10.836;2022-07-29T11:07:33;9.65;;;4.68;;
6113;SDS011;3087;48.392;10.836;2022-07-29T11:15:17;7.22;;;4.88;;
6113;SDS011;3087;48.392;10.836;2022-07-29T11:20:44;7.53;;;4.30;;
6113;SDS011;3087;48.392;10.836;2022-07-29T11:28:49;6.45;;;4.78;;
6113;SDS011;3087;48.392;10.836;2022-07-29T11:34:29;5.28;;;3.80;;
6113;SDS011;3087;48.392;10.836;2022-07-29T11:39:38;5.47;;;4.45;;
6113;SDS011;3087;48.392;10.836;2022-07-29T11:47:38;4.43;;;4.03;;
6113;SDS011;3087;48.392;10.836;2022-07-29T11:50:08;3.85;;;3.42;;
6113;SDS011;3087;48.392;10.836;2022-07-29T11:52:43;6.22;;;3.22;;
6113;SDS011;3087;48.392;10.836;2022-07-29T11:55:16;6.13;;;3.78;;
6113;SDS011;3087;48.392;10.836;2022-07-29T11:57:47;5.35;;;3.80;;
6113;SDS011;3087;48.392;10.836;2022-07-29T12:00:25;4.78;;;4.22;;
6113;SDS011;3087;48.392;10.836;2022-07-29T12:02:57;5.15;;;3.63;;
6113;SDS011;3087;48.392;10.836;2022-07-29T12:05:34;6.20;;;4.32;;
6113;SDS011;3087;48.392;10.836;2022-07-29T12:08:05;7.60;;;4.03;;
6113;SDS011;3087;48.392;10.836;2022-07-29T12:10:40;6.10;;;4.28;;
6113;SDS011;3087;48.392;10.836;2022-07-29T12:13:07;5.53;;;4.05;;
6113;SDS011;3087;48.392;10.836;2022-07-29T12:15:34;5.03;;;3.75;;
6113;SDS011;3087;48.392;10.836;2022-07-29T12:18:14;5.05;;;3.38;;
6113;SDS011;3087;48.392;10.836;2022-07-29T12:20:49;6.55;;;3.60;;
6113;SDS011;3087;48.392;10.836;2022-07-29T12:23:28;6.05;;;3.67;;
6113;SDS011;3087;48.392;10.836;2022-07-29T12:25:55;4.32;;;3.92;;
6113;SDS011;3087;48.392;10.836;2022-07-29T12:28:22;5.25;;;3.47;;
6113;SDS011;3087;48.392;10.836;2022-07-29T12:30:49;4.95;;;3.42;;
6113;SDS011;3087;48.392;10.836;2022-07-29T12:33:22;6.75;;;3.60;;
6113;SDS011;3087;48.392;10.836;2022-07-29T12:35:54;4.88;;;3.92;;
6113;SDS011;3087;48.392;10.836;2022-07-29T12:38:25;4.97;;;4.47;;
6113;SDS011;3087;48.392;10.836;2022-07-29T12:40:52;8.80;;;4.13;;
6113;SDS011;3087;48.392;10.836;2022-07-29T12:43:22;5.38;;;3.92;;
6113;SDS011;3087;48.392;10.836;2022-07-29T12:45:50;4.43;;;3.85;;
6113;SDS011;3087;48.392;10.836;2022-07-29T12:48:31;6.10;;;4.07;;
6113;SDS011;3087;48.392;10.836;2022-07-29T12:51:04;6.57;;;3.63;;
6113;SDS011;3087;48.392;10.836;2022-07-29T12:53:35;6.82;;;3.85;;
6113;SDS011;3087;48.392;10.836;2022-07-29T12:56:02;4.05;;;3.50;;
6113;SDS011;3087;48.392;10.836;2022-07-29T12:58:35;5.03;;;4.25;;
6113;SDS011;3087;48.392;10.836;2022-07-29T13:01:16;4.95;;;3.97;;
6113;SDS011;3087;48.392;10.836;2022-07-29T13:03:51;5.78;;;4.47;;
6113;SDS011;3087;48.392;10.836;2022-07-29T13:09:01;7.55;;;3.97;;
6113;SDS011;3087;48.392;10.836;2022-07-29T13:11:41;5.75;;;4.72;;
6113;SDS011;3087;48.392;10.836;2022-07-29T13:14:34;4.28;;;3.63;;
6113;SDS011;3087;48.392;10.836;2022-07-29T13:17:19;4.65;;;3.92;;
6113;SDS011;3087;48.392;10.836;2022-07-29T13:19:48;4.50;;;3.65;;
6113;SDS011;3087;48.392;10.836;2022-07-29T13:22:18;6.30;;;3.55;;
6113;SDS011;3087;48.392;10.836;2022-07-29T13:24:51;6.97;;;3.22;;
6113;SDS011;3087;48.392;10.836;2022-07-29T13:27:28;3.40;;;3.10;;
6113;SDS011;3087;48.392;10.836;2022-07-29T13:30:11;3.47;;;3.03;;
6113;SDS011;3087;48.392;10.836;2022-07-29T13:32:40;6.25;;;3.58;;
6113;SDS011;3087;48.392;10.836;2022-07-29T13:35:06;4.03;;;3.63;;
6113;SDS011;3087;48.392;10.836;2022-07-29T13:37:34;5.03;;;4.22;;
6113;SDS011;3087;48.392;10.836;2022-07-29T13:40:06;4.68;;;3.78;;
6113;SDS011;3087;48.392;10.836;2022-07-29T13:42:33;7.10;;;4.05;;
6113;SDS011;3087;48.392;10.836;2022-07-29T13:44:59;5.10;;;3.45;;
6113;SDS011;3087;48.392;10.836;2022-07-29T13:47:26;6.55;;;3.45;;
6113;SDS011;3087;48.392;10.836;2022-07-29T13:49:53;6.88;;;3.75;;
6113;SDS011;3087;48.392;10.836;2022-07-29T13:52:19;4.60;;;3.70;;
6113;SDS011;3087;48.392;10.836;2022-07-29T13:54:45;4.88;;;4.25;;
6113;SDS011;3087;48.392;10.836;2022-07-29T13:57:11;6.25;;;4.10;;
6113;SDS011;3087;48.392;10.836;2022-07-29T13:59:37;5.28;;;3.53;;
6113;SDS011;3087;48.392;10.836;2022-07-29T14:02:07;4.35;;;3.75;;
6113;SDS011;3087;48.392;10.836;2022-07-29T14:04:34;5.43;;;3.20;;
6113;SDS011;3087;48.392;10.836;2022-07-29T14:06:59;5.15;;;3.63;;
6113;SDS011;3087;48.392;10.836;2022-07-29T14:09:25;5.55;;;4.10;;
6113;SDS011;3087;48.392;10.836;2022-07-29T14:11:51;4.13;;;3.60;;
6113;SDS011;3087;48.392;10.836;2022-07-29T14:14:17;3.97;;;3.33;;
6113;SDS011;3087;48.392;10.836;2022-07-29T14:16:44;7.95;;;3.63;;
6113;SDS011;3087;48.392;10.836;2022-07-29T14:19:09;4.45;;;3.25;;
6113;SDS011;3087;48.392;10.836;2022-07-29T14:21:36;6.95;;;4.57;;
6113;SDS011;3087;48.392;10.836;2022-07-29T14:24:02;4.28;;;3.88;;
6113;SDS011;3087;48.392;10.836;2022-07-29T14:26:28;4.68;;;3.30;;
6113;SDS011;3087;48.392;10.836;2022-07-29T14:28:53;5.25;;;3.45;;
6113;SDS011;3087;48.392;10.836;2022-07-29T14:31:19;5.75;;;3.47;;
6113;SDS011;3087;48.392;10.836;2022-07-29T14:33:45;4.53;;;3.58;;
6113;SDS011;3087;48.392;10.836;2022-07-29T14:36:10;3.97;;;3.30;;
6113;SDS011;3087;48.392;10.836;2022-07-29T14:38:36;4.20;;;3.67;;
6113;SDS011;3087;48.392;10.836;2022-07-29T14:41:05;4.40;;;3.80;;
6113;SDS011;3087;48.392;10.836;2022-07-29T14:43:31;6.03;;;3.65;;
6113;SDS011;3087;48.392;10.836;2022-07-29T14:45:58;5.15;;;3.38;;
6113;SDS011;3087;48.392;10.836;2022-07-29T14:48:27;7.20;;;4.13;;
6113;SDS011;3087;48.392;10.836;2022-07-29T14:50:53;5.70;;;3.60;;
6113;SDS011;3087;48.392;10.836;2022-07-29T14:53:21;4.90;;;3.80;;
6113;SDS011;3087;48.392;10.836;2022-07-29T14:55:50;4.15;;;3.42;;
6113;SDS011;3087;48.392;10.836;2022-07-29T14:58:16;7.78;;;3.80;;
6113;SDS011;3087;48.392;10.836;2022-07-29T15:00:42;4.65;;;3.92;;
6113;SDS011;3087;48.392;10.836;2022-07-29T15:03:08;5.18;;;3.60;;
6113;SDS011;3087;48.392;10.836;2022-07-29T15:05:36;5.10;;;4.00;;
6113;SDS011;3087;48.392;10.836;2022-07-29T15:08:02;6.68;;;4.40;;
6113;SDS011;3087;48.392;10.836;2022-07-29T15:10:28;5.85;;;3.58;;
6113;SDS011;3087;48.392;10.836;2022-07-29T15:12:54;4.05;;;3.50;;
6113;SDS011;3087;48.392;10.836;2022-07-29T15:15:20;5.28;;;3.80;;
6113;SDS011;3087;48.392;10.836;2022-07-29T15:17:46;4.97;;;4.05;;
6113;SDS011;3087;48.392;10.836;2022-07-29T15:20:12;5.25;;;4.45;;
6113;SDS011;3087;48.392;10.836;2022-07-29T15:22:38;8.60;;;5.30;;
6113;SDS011;3087;48.392;10.836;2022-07-29T15:25:06;5.65;;;4.65;;
6113;SDS011;3087;48.392;10.836;2022-07-29T15:27:32;5.97;;;4.53;;
6113;SDS011;3087;48.392;10.836;2022-07-29T15:29:57;5.72;;;4.10;;
6113;SDS011;3087;48.392;10.836;2022-07-29T15:32:23;4.95;;;3.70;;
6113;SDS011;3087;48.392;10.836;2022-07-29T15:34:48;6.13;;;4.38;;
6113;SDS011;3087;48.392;10.836;2022-07-29T15:37:14;5.85;;;4.05;;
6113;SDS011;3087;48.392;10.836;2022-07-29T15:39:39;6.72;;;4.65;;
6113;SDS011;3087;48.392;10.836;2022-07-29T15:42:05;5.50;;;4.90;;
6113;SDS011;3087;48.392;10.836;2022-07-29T15:44:31;4.47;;;4.07;;
6113;SDS011;3087;48.392;10.836;2022-07-29T15:46:57;7.13;;;4.30;;
6113;SDS011;3087;48.392;10.836;2022-07-29T15:49:30;5.25;;;4.30;;
6113;SDS011;3087;48.392;10.836;2022-07-29T15:52:06;4.85;;;4.30;;
6113;SDS011;3087;48.392;10.836;2022-07-29T15:54:34;4.40;;;4.00;;
6113;SDS011;3087;48.392;10.836;2022-07-29T15:57:01;5.68;;;3.95;;
6113;SDS011;3087;48.392;10.836;2022-07-29T15:59:27;4.68;;;4.25;;
6113;SDS011;3087;48.392;10.836;2022-07-29T16:01:53;5.32;;;4.05;;
6113;SDS011;3087;48.392;10.836;2022-07-29T16:04:20;4.78;;;4.05;;
6113;SDS011;3087;48.392;10.836;2022-07-29T16:06:46;6.30;;;4.05;;
6113;SDS011;3087;48.392;10.836;2022-07-29T16:09:12;7.28;;;3.40;;
6113;SDS011;3087;48.392;10.836;2022-07-29T16:11:39;6.72;;;5.55;;
6113;SDS011;3087;48.392;10.836;2022-07-29T16:14:06;4.88;;;3.83;;
6113;SDS011;3087;48.392;10.836;2022-07-29T16:16:31;4.63;;;3.85;;
6113;SDS011;3087;48.392;10.836;2022-07-29T16:18:57;6.85;;;3.30;;